createdAt,value
2018-03-15T00:00:40.612Z,28.40
2018-03-15T00:01:40.602Z,30.30
2018-03-15T00:02:40.593Z,27.30
2018-03-15T00:03:40.583Z,28.50
2018-03-15T00:04:40.574Z,27.30
2018-03-15T00:05:40.565Z,29.20
2018-03-15T00:06:40.557Z,28.70
2018-03-15T00:07:40.549Z,26.40
2018-03-15T00:08:40.540Z,26.20
2018-03-15T00:09:40.532Z,27.00
2018-03-15T00:10:40.523Z,26.80
2018-03-15T00:11:40.518Z,27.10
2018-03-15T00:12:40.508Z,25.40
2018-03-15T00:13:40.501Z,28.10
2018-03-15T00:14:40.493Z,26.50
2018-03-15T00:15:40.482Z,28.10
2018-03-15T00:16:40.473Z,28.20
2018-03-15T00:17:40.463Z,27.60
2018-03-15T00:18:40.456Z,26.30
2018-03-15T00:19:40.450Z,27.30
2018-03-15T00:20:40.440Z,25.20
2018-03-15T00:21:40.433Z,27.20
2018-03-15T00:22:40.423Z,27.10
2018-03-15T00:23:40.417Z,25.70
2018-03-15T00:24:40.406Z,26.70
2018-03-15T00:25:40.398Z,26.50
2018-03-15T00:26:40.412Z,26.30
2018-03-15T00:27:40.380Z,26.50
2018-03-15T00:28:40.369Z,28.30
2018-03-15T00:29:40.361Z,26.90
2018-03-15T00:30:40.356Z,27.30
2018-03-15T00:31:40.352Z,28.50
2018-03-15T00:32:40.335Z,26.90
2018-03-15T00:33:40.327Z,27.30
2018-03-15T00:34:40.318Z,27.00
2018-03-15T00:35:40.313Z,27.10
2018-03-15T00:36:40.311Z,26.60
2018-03-15T00:37:40.296Z,27.10
2018-03-15T00:38:40.288Z,28.20
2018-03-15T00:39:40.339Z,27.40
2018-03-15T00:40:40.269Z,27.50
2018-03-15T00:41:40.260Z,29.00
2018-03-15T00:42:40.254Z,28.90
2018-03-15T00:43:40.241Z,25.40
2018-03-15T00:44:40.233Z,28.50
2018-03-15T00:45:40.224Z,27.70
2018-03-15T00:46:40.215Z,26.80
2018-03-15T00:47:40.207Z,27.00
2018-03-15T00:48:40.197Z,26.30
2018-03-15T00:49:40.189Z,26.60
2018-03-15T00:50:40.181Z,26.30
2018-03-15T00:51:40.174Z,28.00
2018-03-15T00:52:40.166Z,26.10
2018-03-15T00:53:40.158Z,27.30
2018-03-15T00:54:40.149Z,27.20
2018-03-15T00:55:40.140Z,28.00
2018-03-15T00:56:40.130Z,27.60
2018-03-15T00:57:40.122Z,26.70
2018-03-15T00:58:40.113Z,27.60
2018-03-15T00:59:40.104Z,26.40
2018-03-15T01:00:40.096Z,25.80
2018-03-15T01:01:40.085Z,26.90
2018-03-15T01:02:40.077Z,27.10
2018-03-15T01:03:40.069Z,27.50
2018-03-15T01:04:40.059Z,27.40
2018-03-15T01:05:40.054Z,26.60
2018-03-15T01:06:40.085Z,25.90
2018-03-15T01:07:40.038Z,25.30
2018-03-15T01:08:40.028Z,25.80
2018-03-15T01:09:40.018Z,25.80
2018-03-15T01:10:40.010Z,28.00
2018-03-15T01:11:40.001Z,26.10
2018-03-15T01:12:39.994Z,26.30
2018-03-15T01:13:39.983Z,25.70
2018-03-15T01:14:39.976Z,25.80
2018-03-15T01:15:39.964Z,26.60
2018-03-15T01:16:39.958Z,26.60
2018-03-15T01:17:39.946Z,26.40
2018-03-15T01:18:39.938Z,26.60
2018-03-15T01:19:39.929Z,26.60
2018-03-15T01:20:39.920Z,26.40
2018-03-15T01:21:39.914Z,26.20
2018-03-15T01:22:39.909Z,26.60
2018-03-15T01:23:39.897Z,26.10
2018-03-15T01:24:39.889Z,27.10
2018-03-15T01:25:39.880Z,25.70
2018-03-15T01:26:39.871Z,26.70
2018-03-15T01:27:39.862Z,26.90
2018-03-15T01:28:39.854Z,23.70
2018-03-15T01:29:39.847Z,26.30
2018-03-15T01:30:39.836Z,26.70
2018-03-15T01:31:39.825Z,26.70
2018-03-15T01:32:39.815Z,28.30
2018-03-15T01:33:39.807Z,26.00
2018-03-15T01:34:39.798Z,26.80
2018-03-15T01:35:39.790Z,26.10
2018-03-15T01:36:39.780Z,26.40
2018-03-15T01:37:39.772Z,26.00
2018-03-15T01:38:39.764Z,27.10
2018-03-15T01:39:39.757Z,27.70
2018-03-15T01:40:39.748Z,26.30
2018-03-15T01:41:39.738Z,26.60
2018-03-15T01:42:39.730Z,27.20
2018-03-15T01:43:39.722Z,27.10
2018-03-15T01:44:39.712Z,25.40
2018-03-15T01:45:39.705Z,26.40
2018-03-15T01:46:39.696Z,26.10
2018-03-15T01:47:39.685Z,27.10
2018-03-15T01:48:39.674Z,27.20
2018-03-15T01:49:39.667Z,27.10
2018-03-15T01:50:39.656Z,26.50
2018-03-15T01:51:39.648Z,25.80
2018-03-15T01:52:39.639Z,26.70
2018-03-15T01:53:39.631Z,28.00
2018-03-15T01:54:39.625Z,27.70
2018-03-15T01:55:39.616Z,27.00
2018-03-15T01:56:39.606Z,26.10
2018-03-15T01:57:39.598Z,28.40
2018-03-15T01:58:39.589Z,26.00
2018-03-15T01:59:39.581Z,28.60
2018-03-15T02:00:39.570Z,27.60
2018-03-15T02:01:39.562Z,27.30
2018-03-15T02:02:39.553Z,28.90
2018-03-15T02:03:39.542Z,27.60
2018-03-15T02:04:39.532Z,27.20
2018-03-15T02:05:39.523Z,28.80
2018-03-15T02:06:39.514Z,28.60
2018-03-15T02:07:39.505Z,28.30
2018-03-15T02:08:39.496Z,27.90
2018-03-15T02:09:39.487Z,28.10
2018-03-15T02:10:39.477Z,28.40
2018-03-15T02:11:39.473Z,28.10
2018-03-15T02:12:39.462Z,27.20
2018-03-15T02:13:39.457Z,27.70
2018-03-15T02:14:39.444Z,26.30
2018-03-15T02:15:39.436Z,27.60
2018-03-15T02:16:39.429Z,27.80
2018-03-15T02:17:39.417Z,27.30
2018-03-15T02:18:39.409Z,28.80
2018-03-15T02:19:39.397Z,27.50
2018-03-15T02:20:39.389Z,27.30
2018-03-15T02:21:39.379Z,28.40
2018-03-15T02:22:39.369Z,28.00
2018-03-15T02:23:39.363Z,26.50
2018-03-15T02:24:39.355Z,26.20
2018-03-15T02:25:39.347Z,26.80
2018-03-15T02:26:39.339Z,27.40
2018-03-15T02:27:39.325Z,28.20
2018-03-15T02:28:39.316Z,27.50
2018-03-15T02:29:39.306Z,25.10
2018-03-15T02:30:39.297Z,26.30
2018-03-15T02:31:39.288Z,26.70
2018-03-15T02:32:39.277Z,25.60
2018-03-15T02:33:39.270Z,25.30
2018-03-15T02:34:39.260Z,27.00
2018-03-15T02:35:39.254Z,28.00
2018-03-15T02:36:39.244Z,26.30
2018-03-15T02:37:39.236Z,24.50
2018-03-15T02:38:39.226Z,25.60
2018-03-15T02:39:39.217Z,26.00
2018-03-15T02:40:39.210Z,25.80
2018-03-15T02:41:39.200Z,25.60
2018-03-15T02:42:39.190Z,25.50
2018-03-15T02:43:39.178Z,25.70
2018-03-15T02:44:39.169Z,25.90
2018-03-15T02:45:39.161Z,25.40
2018-03-15T02:46:39.150Z,25.60
2018-03-15T02:47:39.142Z,25.20
2018-03-15T02:48:39.132Z,26.00
2018-03-15T02:49:39.123Z,26.20
2018-03-15T02:50:39.112Z,25.90
2018-03-15T02:51:39.108Z,25.00
2018-03-15T02:52:39.098Z,25.30
2018-03-15T02:53:39.088Z,25.60
2018-03-15T02:54:39.091Z,24.90
2018-03-15T02:55:39.077Z,26.40
2018-03-15T02:56:39.061Z,26.20
2018-03-15T02:57:39.051Z,24.60
2018-03-15T02:58:39.043Z,25.10
2018-03-15T02:59:39.032Z,25.60
2018-03-15T03:00:39.021Z,25.70
2018-03-15T03:01:39.012Z,26.60
2018-03-15T03:02:39.006Z,25.20
2018-03-15T03:03:38.994Z,24.20
2018-03-15T03:04:38.985Z,24.30
2018-03-15T03:05:38.975Z,27.20
2018-03-15T03:06:38.966Z,25.40
2018-03-15T03:07:38.960Z,24.60
2018-03-15T03:08:38.951Z,24.50
2018-03-15T03:09:38.941Z,25.60
2018-03-15T03:10:38.931Z,24.50
2018-03-15T03:11:38.922Z,23.60
2018-03-15T03:12:38.914Z,24.70
2018-03-15T03:13:38.905Z,24.30
2018-03-15T03:14:38.894Z,24.10
2018-03-15T03:15:38.883Z,25.20
2018-03-15T03:16:38.873Z,24.40
2018-03-15T03:17:38.864Z,24.50
2018-03-15T03:18:38.856Z,25.70
2018-03-15T03:19:38.845Z,24.20
2018-03-15T03:20:38.841Z,24.80
2018-03-15T03:21:38.826Z,24.20
2018-03-15T03:22:38.817Z,24.50
2018-03-15T03:23:38.811Z,24.80
2018-03-15T03:24:38.803Z,24.40
2018-03-15T03:25:38.791Z,22.70
2018-03-15T03:26:38.783Z,24.40
2018-03-15T03:27:38.774Z,23.50
2018-03-15T03:28:38.760Z,24.30
2018-03-15T03:29:38.752Z,22.90
2018-03-15T03:30:38.744Z,24.40
2018-03-15T03:31:38.737Z,24.40
2018-03-15T03:32:38.729Z,24.70
2018-03-15T03:33:38.721Z,23.00
2018-03-15T03:34:38.708Z,24.70
2018-03-15T03:35:38.699Z,23.70
2018-03-15T03:36:38.689Z,24.00
2018-03-15T03:37:38.679Z,23.30
2018-03-15T03:38:38.671Z,23.70
2018-03-15T03:39:38.659Z,23.40
2018-03-15T03:40:38.649Z,21.70
2018-03-15T03:41:38.640Z,23.10
2018-03-15T03:42:38.631Z,22.50
2018-03-15T03:43:38.622Z,23.70
2018-03-15T03:44:38.610Z,23.10
2018-03-15T03:45:38.603Z,22.90
2018-03-15T03:46:38.593Z,22.90
2018-03-15T03:47:38.591Z,23.00
2018-03-15T03:48:38.579Z,23.20
2018-03-15T03:49:38.567Z,22.80
2018-03-15T03:50:38.558Z,24.80
2018-03-15T03:51:38.549Z,21.40
2018-03-15T03:52:38.538Z,25.10
2018-03-15T03:53:38.533Z,22.50
2018-03-15T03:54:38.520Z,22.70
2018-03-15T03:55:38.509Z,23.20
2018-03-15T03:56:38.498Z,23.10
2018-03-15T03:57:38.489Z,23.20
2018-03-15T03:58:38.481Z,22.80
2018-03-15T03:59:38.475Z,23.70
2018-03-15T04:00:38.461Z,23.00
2018-03-15T04:01:38.452Z,21.50
2018-03-15T04:02:38.441Z,23.20
2018-03-15T04:03:38.437Z,23.60
2018-03-15T04:04:38.426Z,22.20
2018-03-15T04:05:38.416Z,21.80
2018-03-15T04:06:38.407Z,23.20
2018-03-15T04:07:38.398Z,22.50
2018-03-15T04:08:38.387Z,23.10
2018-03-15T04:09:38.379Z,22.70
2018-03-15T04:10:38.370Z,22.30
2018-03-15T04:11:38.361Z,23.10
2018-03-15T04:12:38.347Z,22.00
2018-03-15T04:13:38.339Z,22.70
2018-03-15T04:14:38.330Z,22.20
2018-03-15T04:15:38.320Z,22.60
2018-03-15T04:16:38.312Z,22.90
2018-03-15T04:17:38.301Z,22.60
2018-03-15T04:18:38.291Z,25.00
2018-03-15T04:19:38.285Z,23.40
2018-03-15T04:20:38.276Z,23.30
2018-03-15T04:21:38.266Z,23.90
2018-03-15T04:22:38.257Z,22.70
2018-03-15T04:23:38.249Z,23.70
2018-03-15T04:24:38.237Z,21.80
2018-03-15T04:25:38.231Z,23.00
2018-03-15T04:26:38.218Z,22.80
2018-03-15T04:27:38.207Z,22.90
2018-03-15T04:28:38.200Z,21.40
2018-03-15T04:29:38.187Z,21.40
2018-03-15T04:30:38.178Z,22.60
2018-03-15T04:31:38.172Z,23.10
2018-03-15T04:32:38.161Z,22.80
2018-03-15T04:33:38.153Z,21.70
2018-03-15T04:34:38.147Z,21.70
2018-03-15T04:35:38.131Z,22.90
2018-03-15T04:36:38.120Z,22.60
2018-03-15T04:37:38.110Z,20.80
2018-03-15T04:38:38.102Z,22.80
2018-03-15T04:39:38.093Z,21.10
2018-03-15T04:40:38.083Z,23.40
2018-03-15T04:41:38.072Z,22.80
2018-03-15T04:42:38.064Z,23.00
2018-03-15T04:43:38.057Z,21.60
2018-03-15T04:44:38.047Z,22.60
2018-03-15T04:45:38.039Z,21.60
2018-03-15T04:46:38.031Z,23.30
2018-03-15T04:47:38.032Z,22.70
2018-03-15T04:48:38.010Z,22.80
2018-03-15T04:49:38.000Z,22.60
2018-03-15T04:50:37.990Z,22.70
2018-03-15T04:51:37.978Z,23.60
2018-03-15T04:52:37.968Z,22.60
2018-03-15T04:53:37.959Z,22.40
2018-03-15T04:54:37.950Z,23.10
2018-03-15T04:55:37.941Z,22.70
2018-03-15T04:56:37.932Z,23.00
2018-03-15T04:57:37.921Z,23.10
2018-03-15T04:58:37.912Z,23.90
2018-03-15T04:59:37.904Z,22.50
2018-03-15T05:00:37.895Z,22.40
2018-03-15T05:01:37.886Z,23.60
2018-03-15T05:02:37.876Z,22.60
2018-03-15T05:03:37.866Z,22.30
2018-03-15T05:04:37.855Z,21.70
2018-03-15T05:05:37.847Z,22.40
2018-03-15T05:06:37.838Z,23.20
2018-03-15T05:07:37.827Z,23.10
2018-03-15T05:08:37.816Z,23.00
2018-03-15T05:09:37.806Z,21.90
2018-03-15T05:10:37.798Z,22.50
2018-03-15T05:11:37.802Z,23.20
2018-03-15T05:12:37.815Z,23.30
2018-03-15T05:13:37.768Z,22.90
2018-03-15T05:14:37.758Z,23.10
2018-03-15T05:15:37.752Z,22.90
2018-03-15T05:16:37.742Z,21.60
2018-03-15T05:17:37.736Z,22.50
2018-03-15T05:18:37.723Z,22.30
2018-03-15T05:19:37.715Z,22.20
2018-03-15T05:20:37.708Z,22.60
2018-03-15T05:21:37.694Z,24.50
2018-03-15T05:22:37.685Z,23.70
2018-03-15T05:23:37.673Z,22.70
2018-03-15T05:24:37.666Z,23.30
2018-03-15T05:25:37.654Z,22.30
2018-03-15T05:26:37.645Z,23.70
2018-03-15T05:27:37.635Z,23.20
2018-03-15T05:28:37.628Z,22.50
2018-03-15T05:29:37.620Z,22.90
2018-03-15T05:30:37.606Z,23.50
2018-03-15T05:31:37.599Z,22.40
2018-03-15T05:32:37.590Z,23.10
2018-03-15T05:33:37.581Z,23.70
2018-03-15T05:34:37.571Z,22.40
2018-03-15T05:35:37.560Z,22.00
2018-03-15T05:36:37.551Z,22.40
2018-03-15T05:37:37.541Z,21.70
2018-03-15T05:38:37.529Z,24.70
2018-03-15T05:39:37.524Z,22.60
2018-03-15T05:40:37.513Z,24.00
2018-03-15T05:41:37.506Z,21.70
2018-03-15T05:42:37.495Z,22.50
2018-03-15T05:43:37.486Z,23.10
2018-03-15T05:44:37.476Z,23.70
2018-03-15T05:45:37.466Z,23.00
2018-03-15T05:46:37.458Z,23.40
2018-03-15T05:47:37.448Z,23.10
2018-03-15T05:48:37.435Z,22.60
2018-03-15T05:49:37.431Z,22.50
2018-03-15T05:50:37.417Z,22.20
2018-03-15T05:51:37.408Z,22.00
2018-03-15T05:52:37.398Z,23.20
2018-03-15T05:53:37.389Z,22.80
2018-03-15T05:54:37.379Z,21.40
2018-03-15T05:55:37.375Z,23.20
2018-03-15T05:56:37.365Z,21.60
2018-03-15T05:57:37.354Z,22.50
2018-03-15T05:58:37.350Z,22.90
2018-03-15T05:59:37.337Z,23.10
2018-03-15T06:00:37.329Z,22.30
2018-03-15T06:01:37.317Z,22.00
2018-03-15T06:02:37.309Z,24.80
2018-03-15T06:03:37.297Z,22.10
2018-03-15T06:04:37.287Z,22.20
2018-03-15T06:05:37.278Z,22.60
2018-03-15T06:06:37.269Z,21.90
2018-03-15T06:07:37.277Z,21.10
2018-03-15T06:08:37.250Z,21.50
2018-03-15T06:09:37.241Z,21.80
2018-03-15T06:10:37.232Z,21.30
2018-03-15T06:11:37.225Z,22.80
2018-03-15T06:12:37.216Z,21.20
2018-03-15T06:13:37.206Z,21.40
2018-03-15T06:14:37.199Z,22.00
2018-03-15T06:15:37.190Z,22.30
2018-03-15T06:16:37.179Z,21.50
2018-03-15T06:17:37.171Z,21.40
2018-03-15T06:18:37.162Z,21.00
2018-03-15T06:19:37.152Z,22.90
2018-03-15T06:20:37.143Z,21.60
2018-03-15T06:21:37.134Z,22.00
2018-03-15T06:22:37.126Z,20.50
2018-03-15T06:23:37.119Z,22.90
2018-03-15T06:24:37.110Z,21.50
2018-03-15T06:25:37.103Z,22.70
2018-03-15T06:26:37.096Z,23.70
2018-03-15T06:27:37.091Z,22.70
2018-03-15T06:28:37.086Z,22.50
2018-03-15T06:29:37.076Z,22.80
2018-03-15T06:30:37.068Z,21.20
2018-03-15T06:31:37.061Z,22.20
2018-03-15T06:32:37.055Z,21.20
2018-03-15T06:33:37.047Z,21.60
2018-03-15T06:34:37.041Z,20.90
2018-03-15T06:35:37.031Z,22.40
2018-03-15T06:36:37.023Z,21.30
2018-03-15T06:37:37.017Z,22.90
2018-03-15T06:38:37.011Z,24.40
2018-03-15T06:39:37.006Z,23.10
2018-03-15T06:40:37.000Z,22.90
2018-03-15T06:41:36.993Z,22.40
2018-03-15T06:42:36.987Z,22.60
2018-03-15T06:43:36.980Z,23.10
2018-03-15T06:44:36.972Z,23.40
2018-03-15T06:45:36.967Z,24.10
2018-03-15T06:46:36.962Z,22.90
2018-03-15T06:47:36.956Z,22.50
2018-03-15T06:48:36.951Z,22.80
2018-03-15T06:49:36.950Z,22.40
2018-03-15T06:50:36.942Z,21.90
2018-03-15T06:51:36.941Z,22.20
2018-03-15T06:52:36.935Z,22.00
2018-03-15T06:53:36.930Z,22.60
2018-03-15T06:54:36.927Z,21.60
2018-03-15T06:55:36.924Z,22.70
2018-03-15T06:56:36.919Z,22.30
2018-03-15T06:57:36.916Z,21.70
2018-03-15T06:58:36.913Z,22.00
2018-03-15T06:59:36.907Z,22.30
2018-03-15T07:00:36.904Z,22.00
2018-03-15T07:01:36.905Z,22.30
2018-03-15T07:02:36.899Z,21.90
2018-03-15T07:03:36.899Z,21.80
2018-03-15T07:04:36.893Z,21.30
2018-03-15T07:05:36.892Z,21.40
2018-03-15T07:06:36.891Z,20.60
2018-03-15T07:07:36.892Z,21.00
2018-03-15T07:08:36.889Z,20.60
2018-03-15T07:09:36.888Z,21.10
2018-03-15T07:10:36.889Z,21.00
2018-03-15T07:11:36.887Z,21.50
2018-03-15T07:12:36.885Z,21.20
2018-03-15T07:13:36.886Z,20.90
2018-03-15T07:14:36.885Z,20.80
2018-03-15T07:15:36.882Z,21.60
2018-03-15T07:16:36.929Z,21.40
2018-03-15T07:17:36.881Z,21.60
2018-03-15T07:18:36.882Z,21.60
2018-03-15T07:19:36.882Z,21.30
2018-03-15T07:20:36.882Z,21.30
2018-03-15T07:21:36.884Z,21.30
2018-03-15T07:22:36.885Z,21.10
2018-03-15T07:23:36.888Z,22.10
2018-03-15T07:24:36.888Z,22.10
2018-03-15T07:25:36.890Z,22.20
2018-03-15T07:26:36.892Z,22.10
2018-03-15T07:27:36.892Z,21.40
2018-03-15T07:28:36.893Z,21.00
2018-03-15T07:29:36.894Z,22.70
2018-03-15T07:30:36.896Z,21.80
2018-03-15T07:31:36.895Z,22.20
2018-03-15T07:32:36.903Z,22.50
2018-03-15T07:33:36.897Z,22.60
2018-03-15T07:34:36.902Z,22.40
2018-03-15T07:35:36.900Z,22.50
2018-03-15T07:36:36.901Z,22.00
2018-03-15T07:37:36.903Z,22.00
2018-03-15T07:38:36.904Z,21.20
2018-03-15T07:39:36.911Z,21.40
2018-03-15T07:40:36.912Z,22.20
2018-03-15T07:41:36.913Z,21.50
2018-03-15T07:42:36.916Z,21.30
2018-03-15T07:43:36.917Z,21.00
2018-03-15T07:44:36.920Z,21.60
2018-03-15T07:45:36.922Z,21.40
2018-03-15T07:46:36.925Z,20.30
2018-03-15T07:47:36.933Z,21.40
2018-03-15T07:48:36.935Z,20.20
2018-03-15T07:49:36.939Z,20.90
2018-03-15T07:50:36.942Z,20.60
2018-03-15T07:51:36.947Z,20.50
2018-03-15T07:52:36.950Z,21.60
2018-03-15T07:53:36.958Z,21.40
2018-03-15T07:54:36.958Z,21.10
2018-03-15T07:55:36.961Z,21.40
2018-03-15T07:56:36.964Z,21.50
2018-03-15T07:57:36.970Z,22.10
2018-03-15T07:58:36.973Z,21.10
2018-03-15T07:59:36.981Z,21.70
2018-03-15T08:00:36.987Z,21.40
2018-03-15T08:01:36.985Z,22.00
2018-03-15T08:02:36.991Z,20.80
2018-03-15T08:03:36.998Z,21.30
2018-03-15T08:04:37.002Z,20.20
2018-03-15T08:05:37.007Z,20.70
2018-03-15T08:06:37.013Z,20.40
2018-03-15T08:07:37.020Z,20.30
2018-03-15T08:08:37.022Z,20.70
2018-03-15T08:09:37.027Z,21.90
2018-03-15T08:10:37.032Z,20.40
2018-03-15T08:11:37.035Z,20.10
2018-03-15T08:12:37.039Z,19.90
2018-03-15T08:13:37.045Z,19.60
2018-03-15T08:14:37.075Z,20.10
2018-03-15T08:15:37.056Z,20.40
2018-03-15T08:16:37.059Z,20.70
2018-03-15T08:17:37.064Z,19.70
2018-03-15T08:18:37.068Z,20.00
2018-03-15T08:19:37.077Z,20.20
2018-03-15T08:20:37.111Z,21.40
2018-03-15T08:21:37.087Z,20.70
2018-03-15T08:22:37.092Z,20.30
2018-03-15T08:23:37.100Z,19.80
2018-03-15T08:24:37.101Z,20.20
2018-03-15T08:25:37.107Z,21.00
2018-03-15T08:26:37.114Z,21.30
2018-03-15T08:27:37.116Z,21.00
2018-03-15T08:28:37.117Z,21.50
2018-03-15T08:29:37.121Z,21.90
2018-03-15T08:30:37.124Z,21.60
2018-03-15T08:31:37.131Z,21.40
2018-03-15T08:32:37.133Z,22.30
2018-03-15T08:33:37.138Z,21.40
2018-03-15T08:34:37.144Z,21.20
2018-03-15T08:35:37.152Z,20.60
2018-03-15T08:36:37.156Z,20.20
2018-03-15T08:37:37.164Z,20.00
2018-03-15T08:38:37.164Z,21.10
2018-03-15T08:39:37.193Z,21.40
2018-03-15T08:40:37.182Z,20.80
2018-03-15T08:41:37.176Z,21.40
2018-03-15T08:42:37.180Z,21.50
2018-03-15T08:43:37.180Z,21.10
2018-03-15T08:44:37.183Z,20.70
2018-03-15T08:45:37.187Z,19.80
2018-03-15T08:46:37.190Z,19.50
2018-03-15T08:47:37.198Z,19.90
2018-03-15T08:48:37.209Z,19.20
2018-03-15T08:49:37.206Z,19.90
2018-03-15T08:50:37.210Z,19.60
2018-03-15T08:51:37.212Z,19.50
2018-03-15T08:52:37.215Z,19.00
2018-03-15T08:53:37.218Z,19.90
2018-03-15T08:54:37.228Z,19.50
2018-03-15T08:55:37.226Z,20.40
2018-03-15T08:56:37.272Z,19.90
2018-03-15T08:57:37.246Z,19.70
2018-03-15T08:58:37.238Z,19.70
2018-03-15T08:59:37.246Z,20.20
2018-03-15T09:00:37.249Z,19.60
2018-03-15T09:01:37.255Z,19.60
2018-03-15T09:02:37.267Z,19.50
2018-03-15T09:03:37.264Z,18.80
2018-03-15T09:04:37.806Z,19.20
2018-03-15T09:05:37.272Z,18.90
2018-03-15T09:06:37.278Z,19.10
2018-03-15T09:07:37.278Z,18.10
2018-03-15T09:08:37.340Z,17.50
2018-03-15T09:09:37.287Z,17.80
2018-03-15T09:10:37.293Z,18.10
2018-03-15T09:11:37.298Z,18.00
2018-03-15T09:12:37.302Z,18.30
2018-03-15T09:13:37.309Z,18.60
2018-03-15T09:14:37.314Z,18.40
2018-03-15T09:15:37.323Z,19.20
2018-03-15T09:16:37.328Z,18.60
2018-03-15T09:17:37.338Z,18.90
2018-03-15T09:18:37.341Z,19.50
2018-03-15T09:19:37.345Z,19.30
2018-03-15T09:20:37.351Z,18.00
2018-03-15T09:21:37.358Z,17.00
2018-03-15T09:22:37.362Z,18.30
2018-03-15T09:23:37.409Z,18.20
2018-03-15T09:24:37.370Z,18.40
2018-03-15T09:25:37.376Z,17.60
2018-03-15T09:26:37.383Z,18.20
2018-03-15T09:27:37.390Z,18.00
2018-03-15T09:28:37.416Z,18.00
2018-03-15T09:29:37.400Z,17.70
2018-03-15T09:30:37.406Z,16.90
2018-03-15T09:31:37.417Z,17.20
2018-03-15T09:32:37.422Z,17.40
2018-03-15T09:33:37.429Z,17.60
2018-03-15T09:34:37.440Z,18.90
2018-03-15T09:35:37.442Z,18.70
2018-03-15T09:36:37.448Z,19.30
2018-03-15T09:37:37.458Z,18.20
2018-03-15T09:38:37.462Z,18.60
2018-03-15T09:39:37.466Z,17.60
2018-03-15T09:40:37.537Z,18.10
2018-03-15T09:41:37.479Z,18.20
2018-03-15T09:42:37.482Z,18.30
2018-03-15T09:43:37.490Z,18.00
2018-03-15T09:44:37.495Z,19.50
2018-03-15T09:45:37.503Z,18.50
2018-03-15T09:46:37.506Z,17.90
2018-03-15T09:47:37.518Z,18.60
2018-03-15T09:48:37.520Z,18.10
2018-03-15T09:49:37.527Z,18.00
2018-03-15T09:50:37.532Z,18.00
2018-03-15T09:51:37.537Z,17.80
2018-03-15T09:52:37.543Z,17.90
2018-03-15T09:53:37.547Z,18.10
2018-03-15T09:54:37.552Z,16.90
2018-03-15T09:55:37.555Z,16.90
2018-03-15T09:56:37.559Z,16.90
2018-03-15T09:57:37.564Z,17.00
2018-03-15T09:58:37.570Z,17.10
2018-03-15T09:59:37.576Z,17.20
2018-03-15T10:00:37.580Z,17.50
2018-03-15T10:01:37.586Z,17.10
2018-03-15T10:02:37.594Z,17.00
2018-03-15T10:03:37.602Z,17.20
2018-03-15T10:04:37.609Z,16.60
2018-03-15T10:05:37.613Z,16.20
2018-03-15T10:06:37.619Z,16.50
2018-03-15T10:07:37.625Z,16.70
2018-03-15T10:08:37.630Z,16.70
2018-03-15T10:09:37.634Z,16.10
2018-03-15T10:10:37.641Z,16.80
2018-03-15T10:11:37.644Z,16.20
2018-03-15T10:12:37.649Z,17.50
2018-03-15T10:13:37.654Z,16.60
2018-03-15T10:14:37.662Z,17.00
2018-03-15T10:15:37.666Z,16.70
2018-03-15T10:16:37.674Z,16.20
2018-03-15T10:17:37.675Z,16.00
2018-03-15T10:18:37.687Z,16.40
2018-03-15T10:19:37.694Z,16.30
2018-03-15T10:20:37.696Z,16.20
2018-03-15T10:21:37.702Z,15.30
2018-03-15T10:22:37.708Z,15.50
2018-03-15T10:23:37.715Z,16.10
2018-03-15T10:24:37.720Z,15.90
2018-03-15T10:25:37.726Z,16.00
2018-03-15T10:26:37.733Z,15.90
2018-03-15T10:27:37.737Z,15.60
2018-03-15T10:28:37.742Z,15.60
2018-03-15T10:29:37.749Z,16.20
2018-03-15T10:30:37.755Z,15.30
2018-03-15T10:31:37.761Z,15.90
2018-03-15T10:32:37.768Z,15.90
2018-03-15T10:33:37.776Z,16.10
2018-03-15T10:34:37.779Z,16.10
2018-03-15T10:35:37.789Z,17.20
2018-03-15T10:36:37.794Z,17.30
2018-03-15T10:37:37.801Z,17.70
2018-03-15T10:38:37.808Z,18.00
2018-03-15T10:39:37.812Z,18.10
2018-03-15T10:40:37.816Z,17.70
2018-03-15T10:41:37.821Z,17.70
2018-03-15T10:42:37.828Z,17.90
2018-03-15T10:43:37.828Z,17.80
2018-03-15T10:44:37.831Z,17.90
2018-03-15T10:45:37.836Z,17.50
2018-03-15T10:46:37.842Z,17.50
2018-03-15T10:47:37.846Z,17.00
2018-03-15T10:48:37.849Z,17.40
2018-03-15T10:49:37.852Z,17.30
2018-03-15T10:50:37.857Z,17.90
2018-03-15T10:51:37.865Z,18.20
2018-03-15T10:52:37.868Z,18.10
2018-03-15T10:53:37.886Z,18.10
2018-03-15T10:54:37.876Z,17.20
2018-03-15T10:55:37.876Z,18.30
2018-03-15T10:56:37.876Z,17.20
2018-03-15T10:57:37.880Z,16.60
2018-03-15T10:58:37.883Z,16.80
2018-03-15T10:59:37.889Z,17.60
2018-03-15T11:00:37.892Z,17.90
2018-03-15T11:01:37.897Z,17.50
2018-03-15T11:02:37.896Z,17.70
2018-03-15T11:03:37.899Z,17.50
2018-03-15T11:04:37.901Z,17.90
2018-03-15T11:05:37.904Z,17.70
2018-03-15T11:06:37.906Z,16.90
2018-03-15T11:07:37.905Z,16.90
2018-03-15T11:08:37.907Z,17.00
2018-03-15T11:09:37.908Z,18.10
2018-03-15T11:10:37.910Z,18.00
2018-03-15T11:11:37.912Z,17.20
2018-03-15T11:12:37.913Z,17.70
2018-03-15T11:13:37.915Z,17.80
2018-03-15T11:14:37.918Z,17.30
2018-03-15T11:15:37.922Z,17.50
2018-03-15T11:16:37.926Z,17.30
2018-03-15T11:17:37.924Z,16.80
2018-03-15T11:18:37.925Z,17.50
2018-03-15T11:19:37.926Z,15.80
2018-03-15T11:20:37.927Z,16.30
2018-03-15T11:21:37.929Z,17.00
2018-03-15T11:22:37.930Z,17.70
2018-03-15T11:23:37.927Z,17.20
2018-03-15T11:24:37.927Z,16.30
2018-03-15T11:25:37.927Z,16.00
2018-03-15T11:26:37.928Z,16.90
2018-03-15T11:27:37.928Z,15.30
2018-03-15T11:28:37.929Z,16.30
2018-03-15T11:29:37.930Z,15.90
2018-03-15T11:30:37.929Z,15.00
2018-03-15T11:31:37.934Z,15.50
2018-03-15T11:32:37.934Z,15.10
2018-03-15T11:33:37.934Z,14.90
2018-03-15T11:34:37.934Z,16.40
2018-03-15T11:35:37.934Z,15.60
2018-03-15T11:36:37.935Z,16.40
2018-03-15T11:37:37.934Z,17.80
2018-03-15T11:38:37.999Z,17.30
2018-03-15T11:39:37.931Z,15.50
2018-03-15T11:40:37.930Z,17.40
2018-03-15T11:41:37.929Z,14.70
2018-03-15T11:42:37.930Z,15.30
2018-03-15T11:43:37.928Z,15.10
2018-03-15T11:44:37.928Z,14.90
2018-03-15T11:45:37.928Z,14.70
2018-03-15T11:46:37.927Z,15.80
2018-03-15T11:47:37.930Z,16.70
2018-03-15T11:48:37.928Z,15.10
2018-03-15T11:49:37.928Z,16.00
2018-03-15T11:50:37.975Z,16.60
2018-03-15T11:51:37.928Z,16.80
2018-03-15T11:52:37.928Z,16.30
2018-03-15T11:53:37.926Z,15.40
2018-03-15T11:54:37.932Z,15.60
2018-03-15T11:55:37.922Z,16.50
2018-03-15T11:56:37.925Z,15.70
2018-03-15T11:57:37.920Z,16.30
2018-03-15T11:58:37.919Z,16.30
2018-03-15T11:59:37.928Z,16.70
2018-03-15T12:00:37.944Z,15.70
2018-03-15T12:01:37.944Z,17.60
2018-03-15T12:02:37.924Z,17.40
2018-03-15T12:03:37.919Z,17.50
2018-03-15T12:04:37.918Z,17.10
2018-03-15T12:05:37.918Z,16.60
2018-03-15T12:06:37.919Z,16.10
2018-03-15T12:07:37.991Z,17.60
2018-03-15T12:08:37.917Z,16.60
2018-03-15T12:09:37.917Z,15.60
2018-03-15T12:10:37.916Z,17.20
2018-03-15T12:11:37.921Z,18.00
2018-03-15T12:12:37.919Z,17.60
2018-03-15T12:13:37.919Z,16.10
2018-03-15T12:14:37.919Z,15.70
2018-03-15T12:15:37.918Z,15.70
2018-03-15T12:16:37.917Z,16.70
2018-03-15T12:17:37.920Z,16.10
2018-03-15T12:18:37.917Z,17.00
2018-03-15T12:19:37.913Z,16.00
2018-03-15T12:20:37.912Z,16.30
2018-03-15T12:21:37.911Z,15.30
2018-03-15T12:22:37.910Z,17.00
2018-03-15T12:23:37.911Z,15.30
2018-03-15T12:24:37.910Z,16.00
2018-03-15T12:25:37.908Z,16.20
2018-03-15T12:26:37.908Z,16.40
2018-03-15T12:27:37.910Z,15.50
2018-03-15T12:28:37.909Z,15.70
2018-03-15T12:29:37.909Z,14.80
2018-03-15T12:30:37.908Z,17.00
2018-03-15T12:31:37.907Z,17.40
2018-03-15T12:32:37.905Z,16.60
2018-03-15T12:33:37.905Z,15.50
2018-03-15T12:34:37.903Z,15.60
2018-03-15T12:35:37.900Z,16.40
2018-03-15T12:36:37.898Z,16.90
2018-03-15T12:37:37.897Z,15.80
2018-03-15T12:38:37.897Z,15.50
2018-03-15T12:39:37.894Z,15.90
2018-03-15T12:40:37.895Z,16.10
2018-03-15T12:41:37.892Z,16.30
2018-03-15T12:42:37.915Z,15.00
2018-03-15T12:43:37.894Z,15.60
2018-03-15T12:44:37.892Z,15.50
2018-03-15T12:45:37.891Z,16.60
2018-03-15T12:46:37.890Z,15.40
2018-03-15T12:47:37.890Z,16.40
2018-03-15T12:48:37.888Z,17.60
2018-03-15T12:49:37.886Z,16.00
2018-03-15T12:50:37.885Z,14.30
2018-03-15T12:51:37.884Z,14.40
2018-03-15T12:52:37.878Z,14.70